Panama, Brazil
Current Conditions -  °F | °C
As of 9:00 PM on Thursday 18 Dec 2014 (Local Time) from SBUL Reporting Station
Few Clouds Few Clouds  
Wind Chill: 70°   Ceiling: Unl
Heat Index: 70°   Visibility: 6mi
Dew Point: 64°   Wind: 5mph
Humidity: 83%   Direction: 320°NW
Pressure: 29.94"   Gusts: NA
Location:  18.18°S, 49.35°W
Report Text: SBUL 182300Z 32004KT 9999 FEW015 21/18 Q1014
Loading
Personal Weather Stations






























Interactive Weather Map New forecast layout! Learn more

10-Day Weather Forecast

Advertisements
Track Severe Weather on mobile